createdAt,value
2022-10-15T00:00:50.543Z,97616.91
2022-10-15T00:03:17.372Z,97612.63
2022-10-15T00:05:44.090Z,97618.81
2022-10-15T00:08:11.783Z,97604.13
2022-10-15T00:10:38.621Z,97599.25
2022-10-15T00:13:06.390Z,97591.38
2022-10-15T00:15:35.790Z,97590.66
2022-10-15T00:18:02.364Z,97592.34
2022-10-15T00:20:28.841Z,97590.41
2022-10-15T00:22:55.632Z,97584.75
2022-10-15T00:25:22.111Z,97592.44
2022-10-15T00:27:48.746Z,97588.31
2022-10-15T00:30:15.367Z,97597.09
2022-10-15T00:32:44.290Z,97594.28
2022-10-15T00:35:10.946Z,97588.94
2022-10-15T00:37:37.539Z,97603.72
2022-10-15T00:40:04.761Z,97597.81
2022-10-15T00:42:32.799Z,97583.31
2022-10-15T00:45:00.347Z,97580.28
2022-10-15T00:47:34.911Z,97579.41
2022-10-15T00:50:09.634Z,97574.44
2022-10-15T00:53:01.747Z,97575.97
2022-10-15T00:55:35.005Z,97565.13
2022-10-15T00:58:27.922Z,97569.59
2022-10-15T01:00:56.107Z,97567.97
2022-10-15T01:03:23.415Z,97563.31
2022-10-15T01:05:52.484Z,97561.44
2022-10-15T01:08:19.460Z,97556.75
2022-10-15T01:11:04.462Z,97551.25
2022-10-15T01:13:39.852Z,97547.44
2022-10-15T01:16:36.130Z,97540.41
2022-10-15T01:19:13.076Z,97541.91
2022-10-15T01:21:54.321Z,97534.59
2022-10-15T01:24:42.456Z,97530.72
2022-10-15T01:27:27.611Z,97522.06
2022-10-15T01:30:18.743Z,97524.75
2022-10-15T01:33:14.624Z,97518.75
2022-10-15T01:35:50.134Z,97514.25
2022-10-15T01:38:24.226Z,97511.94
2022-10-15T01:40:57.350Z,97509.97
2022-10-15T01:43:35.673Z,97509.13
2022-10-15T01:46:41.307Z,97511.28
2022-10-15T01:49:13.576Z,97512.31
2022-10-15T01:51:43.004Z,97506.97
2022-10-15T01:54:17.830Z,97511.97
2022-10-15T01:56:49.838Z,97509.63
2022-10-15T01:59:23.084Z,97517.00
2022-10-15T02:01:49.886Z,97504.13
2022-10-15T02:04:22.482Z,97506.97
2022-10-15T02:07:26.075Z,97496.78
2022-10-15T02:10:05.901Z,97503.47
2022-10-15T02:12:50.629Z,97502.47
2022-10-15T02:15:34.337Z,97510.25
2022-10-15T02:18:16.335Z,97494.13
2022-10-15T02:20:59.690Z,97495.91
2022-10-15T02:23:41.595Z,97491.59
2022-10-15T02:26:11.532Z,97493.78
2022-10-15T02:28:42.387Z,97493.59
2022-10-15T02:31:14.400Z,97485.13
2022-10-15T02:33:44.004Z,97483.09
2022-10-15T02:36:14.875Z,97498.47
2022-10-15T02:38:43.609Z,97491.63
2022-10-15T02:41:10.706Z,97483.78
2022-10-15T02:43:39.161Z,97483.41
2022-10-15T02:46:09.168Z,97477.44
2022-10-15T02:48:37.160Z,97476.94
2022-10-15T02:51:04.998Z,97479.63
2022-10-15T02:53:32.160Z,97477.78
2022-10-15T02:55:58.938Z,97480.78
2022-10-15T02:58:26.259Z,97465.56
2022-10-15T03:00:53.753Z,97461.56
2022-10-15T03:03:20.507Z,97463.22
2022-10-15T03:05:47.256Z,97466.38
2022-10-15T03:08:14.561Z,97454.34
2022-10-15T03:10:41.207Z,97454.34
2022-10-15T03:13:08.240Z,97454.00
2022-10-15T03:15:43.360Z,97454.56
2022-10-15T03:18:10.060Z,97454.72
2022-10-15T03:20:36.985Z,97456.38
2022-10-15T03:23:03.674Z,97454.47
2022-10-15T03:25:31.936Z,97458.66
2022-10-15T03:28:02.068Z,97451.03
2022-10-15T03:30:43.230Z,97452.22
2022-10-15T03:33:10.972Z,97455.53
2022-10-15T03:35:38.803Z,97450.72
2022-10-15T03:38:05.974Z,97453.00
2022-10-15T03:40:32.714Z,97439.16
2022-10-15T03:43:10.922Z,97445.00
2022-10-15T03:45:37.591Z,97439.03
2022-10-15T03:48:14.839Z,97443.16
2022-10-15T03:50:41.474Z,97436.44
2022-10-15T03:53:08.753Z,97440.31
2022-10-15T03:55:35.415Z,97439.88
2022-10-15T03:58:02.236Z,97431.22
2022-10-15T04:00:29.722Z,97443.00
2022-10-15T04:02:59.911Z,97439.00
2022-10-15T04:05:28.406Z,97438.03
2022-10-15T04:08:01.042Z,97439.50
2022-10-15T04:10:30.421Z,97436.81
2022-10-15T04:12:57.485Z,97436.22
2022-10-15T04:15:24.100Z,97428.88
2022-10-15T04:17:57.178Z,97434.03
2022-10-15T04:20:27.146Z,97439.56
2022-10-15T04:22:54.690Z,97433.41
2022-10-15T04:25:21.434Z,97433.38
2022-10-15T04:27:48.080Z,97418.69
2022-10-15T04:30:17.754Z,97428.22
2022-10-15T04:32:54.463Z,97427.53
2022-10-15T04:35:21.760Z,97425.75
2022-10-15T04:38:23.847Z,97429.25
2022-10-15T04:41:02.345Z,97420.03
2022-10-15T04:43:41.875Z,97422.22
2022-10-15T04:46:10.720Z,97433.38
2022-10-15T04:48:42.054Z,97422.72
2022-10-15T04:51:15.548Z,97423.03
2022-10-15T04:54:01.860Z,97420.41
2022-10-15T04:56:30.097Z,97425.38
2022-10-15T04:58:57.014Z,97431.88
2022-10-15T05:01:26.682Z,97428.72
2022-10-15T05:04:00.818Z,97427.06
2022-10-15T05:06:28.968Z,97425.38
2022-10-15T05:09:02.544Z,97424.38
2022-10-15T05:11:31.345Z,97421.88
2022-10-15T05:13:58.955Z,97426.00
2022-10-15T05:16:28.794Z,97426.22
2022-10-15T05:19:06.418Z,97419.91
2022-10-15T05:21:35.840Z,97420.88
2022-10-15T05:24:06.519Z,97427.88
2022-10-15T05:26:54.089Z,97425.03
2022-10-15T05:29:22.771Z,97435.72
2022-10-15T05:31:52.001Z,97433.91
2022-10-15T05:34:22.972Z,97432.22
2022-10-15T05:37:02.262Z,97429.72
2022-10-15T05:39:29.393Z,97434.88
2022-10-15T05:41:55.965Z,97436.53
2022-10-15T05:44:40.927Z,97437.91
2022-10-15T05:47:11.831Z,97435.38
2022-10-15T05:49:41.267Z,97441.38
2022-10-15T05:52:21.402Z,97443.22
2022-10-15T05:55:07.429Z,97441.06
2022-10-15T05:57:34.051Z,97451.09
2022-10-15T06:00:05.520Z,97448.91
2022-10-15T06:02:38.681Z,97438.06
2022-10-15T06:05:06.804Z,97450.41
2022-10-15T06:07:33.716Z,97445.25
2022-10-15T06:10:05.913Z,97449.22
2022-10-15T06:12:35.336Z,97457.06
2022-10-15T06:15:02.104Z,97456.41
2022-10-15T06:17:30.070Z,97454.88
2022-10-15T06:19:57.329Z,97457.91
2022-10-15T06:22:24.321Z,97467.94
2022-10-15T06:24:51.245Z,97466.28
2022-10-15T06:27:18.010Z,97475.97
2022-10-15T06:29:44.666Z,97469.25
2022-10-15T06:32:12.059Z,97463.75
2022-10-15T06:34:43.830Z,97474.63
2022-10-15T06:37:11.135Z,97473.59
2022-10-15T06:39:37.756Z,97472.44
2022-10-15T06:42:04.380Z,97474.59
2022-10-15T06:44:50.266Z,97468.06
2022-10-15T06:47:19.567Z,97466.59
2022-10-15T06:49:47.258Z,97468.59
2022-10-15T06:52:13.972Z,97475.44
2022-10-15T06:54:40.598Z,97475.28
2022-10-15T06:57:07.946Z,97461.91
2022-10-15T06:59:38.497Z,97480.44
2022-10-15T07:02:11.917Z,97478.28
2022-10-15T07:04:38.702Z,97465.78
2022-10-15T07:07:05.594Z,97479.44
2022-10-15T07:09:32.255Z,97479.59
2022-10-15T07:11:58.905Z,97477.09
2022-10-15T07:14:27.128Z,97476.59
2022-10-15T07:16:53.747Z,97480.13
2022-10-15T07:19:22.752Z,97476.25
2022-10-15T07:21:49.443Z,97483.94
2022-10-15T07:24:18.145Z,97487.94
2022-10-15T07:26:44.827Z,97485.44
2022-10-15T07:29:11.438Z,97484.78
2022-10-15T07:31:38.199Z,97486.28
2022-10-15T07:34:06.056Z,97485.94
2022-10-15T07:36:32.719Z,97487.63
2022-10-15T07:38:59.411Z,97488.78
2022-10-15T07:41:26.151Z,97479.63
2022-10-15T07:43:53.900Z,97492.63
2022-10-15T07:46:20.654Z,97484.59
2022-10-15T07:48:54.778Z,97479.97
2022-10-15T07:51:21.509Z,97493.44
2022-10-15T07:53:48.124Z,97487.47
2022-10-15T07:56:16.118Z,97485.97
2022-10-15T07:58:43.300Z,97488.63
2022-10-15T08:01:11.152Z,97491.94
2022-10-15T08:03:38.457Z,97491.50
2022-10-15T08:06:07.683Z,97491.25
2022-10-15T08:08:36.850Z,97483.78
2022-10-15T08:11:13.231Z,97484.94
2022-10-15T08:13:42.288Z,97477.28
2022-10-15T08:16:10.952Z,97483.25
2022-10-15T08:18:38.991Z,97476.91
2022-10-15T08:21:07.777Z,97488.94
2022-10-15T08:23:35.093Z,97482.13
2022-10-15T08:26:02.245Z,97488.13
2022-10-15T08:28:30.285Z,97490.13
2022-10-15T08:31:04.562Z,97490.59
2022-10-15T08:33:36.697Z,97498.53
2022-10-15T08:36:07.859Z,97496.44
2022-10-15T08:38:34.860Z,97511.44
2022-10-15T08:41:05.828Z,97506.94
2022-10-15T08:43:38.611Z,97503.38
2022-10-15T08:46:29.022Z,97505.41
2022-10-15T08:48:58.318Z,97497.81
2022-10-15T08:51:40.890Z,97495.09
2022-10-15T08:54:13.890Z,97497.13
2022-10-15T08:56:45.175Z,97504.53
2022-10-15T08:59:14.741Z,97508.22
2022-10-15T09:01:58.390Z,97510.16
2022-10-15T09:04:37.828Z,97516.66
2022-10-15T09:07:33.326Z,97524.69
2022-10-15T09:10:32.272Z,97519.66
2022-10-15T09:13:11.409Z,97521.50
2022-10-15T09:15:50.683Z,97521.94
2022-10-15T09:18:23.984Z,97520.00
2022-10-15T09:20:51.494Z,97520.81
2022-10-15T09:23:24.426Z,97519.81
2022-10-15T09:26:06.195Z,97530.78
2022-10-15T09:28:47.745Z,97523.19
2022-10-15T09:31:20.724Z,97531.44
2022-10-15T09:34:22.922Z,97535.63
2022-10-15T09:36:57.022Z,97532.00
2022-10-15T09:39:44.917Z,97529.53
2022-10-15T09:42:39.206Z,97534.97
2022-10-15T09:45:10.648Z,97540.31
2022-10-15T09:47:43.076Z,97540.19
2022-10-15T09:50:11.709Z,97544.03
2022-10-15T09:52:44.657Z,97539.97
2022-10-15T09:55:40.739Z,97550.16
2022-10-15T09:58:26.064Z,97550.41
2022-10-15T10:01:06.704Z,97548.38
2022-10-15T10:03:39.621Z,97545.94
2022-10-15T10:06:11.869Z,97551.38
2022-10-15T10:09:03.609Z,97555.84
2022-10-15T10:11:55.859Z,97560.41
2022-10-15T10:14:29.065Z,97564.41
2022-10-15T10:17:11.226Z,97559.53
2022-10-15T10:19:39.161Z,97562.81
2022-10-15T10:22:14.348Z,97558.94
2022-10-15T10:24:41.081Z,97568.06
2022-10-15T10:27:27.692Z,97561.06
2022-10-15T10:29:59.634Z,97560.34
2022-10-15T10:32:32.859Z,97552.69
2022-10-15T10:35:01.643Z,97557.69
2022-10-15T10:37:29.461Z,97564.00
2022-10-15T10:39:59.281Z,97572.31
2022-10-15T10:42:38.213Z,97568.69
2022-10-15T10:45:18.887Z,97571.59
2022-10-15T10:47:45.683Z,97572.66
2022-10-15T10:50:35.539Z,97579.72
2022-10-15T10:53:24.181Z,97572.44
2022-10-15T10:55:54.466Z,97573.88
2022-10-15T10:58:29.438Z,97570.25
2022-10-15T11:00:57.707Z,97575.00
2022-10-15T11:03:40.256Z,97586.41
2022-10-15T11:06:27.512Z,97580.00
2022-10-15T11:09:12.567Z,97572.16
2022-10-15T11:12:00.277Z,97581.84
2022-10-15T11:14:58.746Z,97573.56
2022-10-15T11:17:25.636Z,97575.47
2022-10-15T11:20:38.994Z,97566.53
2022-10-15T11:23:39.039Z,97572.25
2022-10-15T11:26:18.928Z,97567.75
2022-10-15T11:29:07.763Z,97576.94
2022-10-15T11:31:48.985Z,97579.88
2022-10-15T11:34:50.677Z,97568.72
2022-10-15T11:37:21.868Z,97568.66
2022-10-15T11:40:00.347Z,97576.47
2022-10-15T11:42:36.768Z,97576.28
2022-10-15T11:45:19.007Z,97568.19
2022-10-15T11:47:49.857Z,97574.44
2022-10-15T11:50:26.562Z,97564.25
2022-10-15T11:53:28.517Z,97568.53
2022-10-15T11:56:13.066Z,97563.97
2022-10-15T11:58:48.260Z,97561.69
2022-10-15T12:01:27.196Z,97562.53
2022-10-15T12:03:57.011Z,97564.84
2022-10-15T12:06:28.574Z,97562.13
2022-10-15T12:08:58.032Z,97558.47
2022-10-15T12:11:47.465Z,97565.22
2022-10-15T12:14:28.340Z,97565.03
2022-10-15T12:16:57.866Z,97567.38
2022-10-15T12:20:12.567Z,97551.16
2022-10-15T12:22:48.530Z,97566.81
2022-10-15T12:25:50.641Z,97572.22
2022-10-15T12:28:21.833Z,97573.38
2022-10-15T12:31:00.152Z,97568.69
2022-10-15T12:33:57.328Z,97570.22
2022-10-15T12:36:30.460Z,97572.19
2022-10-15T12:38:58.613Z,97579.22
2022-10-15T12:41:39.116Z,97585.47
2022-10-15T12:44:23.543Z,97568.91
2022-10-15T12:46:52.037Z,97585.25
2022-10-15T12:49:27.799Z,97585.44
2022-10-15T12:51:56.373Z,97576.91
2022-10-15T12:54:46.301Z,97581.06
2022-10-15T12:57:30.449Z,97581.19
2022-10-15T12:59:59.393Z,97582.47
2022-10-15T13:02:45.498Z,97577.94
2022-10-15T13:05:31.416Z,97587.19
2022-10-15T13:08:00.872Z,97583.63
2022-10-15T13:10:40.990Z,97584.28
2022-10-15T13:13:15.055Z,97579.31
2022-10-15T13:15:41.979Z,97577.34
2022-10-15T13:18:13.838Z,97572.19
2022-10-15T13:20:44.064Z,97580.25
2022-10-15T13:23:31.492Z,97580.81
2022-10-15T13:26:19.256Z,97581.09
2022-10-15T13:28:51.223Z,97580.06
2022-10-15T13:31:27.385Z,97581.72
2022-10-15T13:34:26.242Z,97585.47
2022-10-15T13:36:54.781Z,97593.41
2022-10-15T13:39:30.517Z,97586.66
2022-10-15T13:42:21.937Z,97585.47
2022-10-15T13:45:16.844Z,97586.28
2022-10-15T13:47:48.727Z,97591.00
2022-10-15T13:50:25.663Z,97597.69
2022-10-15T13:53:21.154Z,97591.50
2022-10-15T13:55:51.318Z,97590.03
2022-10-15T13:58:23.542Z,97597.84
2022-10-15T14:00:59.072Z,97592.63
2022-10-15T14:03:30.806Z,97607.41
2022-10-15T14:06:08.092Z,97602.81
2022-10-15T14:08:36.513Z,97609.13
2022-10-15T14:11:03.823Z,97608.75
2022-10-15T14:13:30.481Z,97613.66
2022-10-15T14:16:16.425Z,97614.91
2022-10-15T14:18:49.146Z,97620.38
2022-10-15T14:21:19.924Z,97622.03
2022-10-15T14:23:48.650Z,97630.63
2022-10-15T14:26:23.369Z,97635.75
2022-10-15T14:28:52.080Z,97621.69
2022-10-15T14:31:32.108Z,97639.69
2022-10-15T14:33:59.021Z,97635.88
2022-10-15T14:36:30.661Z,97633.84
2022-10-15T14:39:28.372Z,97630.16
2022-10-15T14:42:07.035Z,97630.03
2022-10-15T14:44:46.633Z,97633.53
2022-10-15T14:47:21.053Z,97628.69
2022-10-15T14:49:49.244Z,97621.09
2022-10-15T14:52:20.405Z,97615.84
2022-10-15T14:55:15.080Z,97613.75
2022-10-15T14:57:45.093Z,97617.78
2022-10-15T15:00:26.615Z,97619.19
2022-10-15T15:02:57.516Z,97615.91
2022-10-15T15:05:26.513Z,97621.84
2022-10-15T15:07:54.295Z,97626.28
2022-10-15T15:10:21.066Z,97619.25
2022-10-15T15:12:53.159Z,97623.25
2022-10-15T15:15:21.536Z,97624.22
2022-10-15T15:17:48.772Z,97621.97
2022-10-15T15:20:17.157Z,97622.72
2022-10-15T15:22:43.960Z,97618.97
2022-10-15T15:25:17.033Z,97619.75
2022-10-15T15:27:43.694Z,97610.63
2022-10-15T15:30:22.818Z,97615.00
2022-10-15T15:32:49.691Z,97617.63
2022-10-15T15:35:21.209Z,97626.50
2022-10-15T15:37:50.739Z,97623.31
2022-10-15T15:40:17.623Z,97621.47
2022-10-15T15:42:45.082Z,97625.38
2022-10-15T15:45:24.741Z,97626.50
2022-10-15T15:47:51.996Z,97621.69
2022-10-15T15:50:21.061Z,97634.78
2022-10-15T15:52:48.384Z,97640.25
2022-10-15T15:55:15.763Z,97645.06
2022-10-15T15:57:42.580Z,97652.09
2022-10-15T16:00:10.490Z,97658.75
2022-10-15T16:02:37.854Z,97672.34
2022-10-15T16:05:10.939Z,97669.72
2022-10-15T16:07:37.611Z,97668.72
2022-10-15T16:10:08.754Z,97677.72
2022-10-15T16:12:35.430Z,97673.47
2022-10-15T16:15:02.090Z,97679.84
2022-10-15T16:17:28.867Z,97686.19
2022-10-15T16:19:55.468Z,97692.88
2022-10-15T16:22:22.273Z,97696.41
2022-10-15T16:24:48.895Z,97697.91
2022-10-15T16:27:15.551Z,97695.03
2022-10-15T16:29:42.109Z,97685.94
2022-10-15T16:32:08.818Z,97697.88
2022-10-15T16:34:35.447Z,97703.22
2022-10-15T16:37:02.246Z,97705.34
2022-10-15T16:39:28.848Z,97708.31
2022-10-15T16:42:00.792Z,97709.34
2022-10-15T16:44:27.574Z,97701.53
2022-10-15T16:46:54.187Z,97705.94
2022-10-15T16:49:21.643Z,97711.94
2022-10-15T16:51:48.342Z,97715.69
2022-10-15T16:54:15.714Z,97714.84
2022-10-15T16:56:43.127Z,97712.00
2022-10-15T16:59:10.294Z,97716.94
2022-10-15T17:01:37.062Z,97729.25
2022-10-15T17:04:04.064Z,97732.56
2022-10-15T17:06:31.117Z,97725.19
2022-10-15T17:09:00.105Z,97735.06
2022-10-15T17:11:28.025Z,97741.28
2022-10-15T17:13:57.499Z,97738.94
2022-10-15T17:16:27.562Z,97746.03
2022-10-15T17:18:56.034Z,97746.16
2022-10-15T17:21:25.462Z,97729.66
2022-10-15T17:23:56.923Z,97743.25
2022-10-15T17:26:26.842Z,97740.94
2022-10-15T17:28:53.751Z,97754.00
2022-10-15T17:31:22.999Z,97760.50
2022-10-15T17:33:54.233Z,97760.06
2022-10-15T17:36:22.054Z,97770.56
2022-10-15T17:38:48.990Z,97758.41
2022-10-15T17:41:20.871Z,97760.75
2022-10-15T17:43:50.031Z,97762.09
2022-10-15T17:46:19.646Z,97771.97
2022-10-15T17:48:47.229Z,97773.44
2022-10-15T17:51:20.506Z,97775.31
2022-10-15T17:53:50.738Z,97789.53
2022-10-15T18:00:58.328Z,97789.22
2022-10-15T18:03:28.866Z,97782.50
2022-10-15T18:05:55.756Z,97783.34
2022-10-15T18:12:49.107Z,97782.34
2022-10-15T18:15:16.364Z,97772.81
2022-10-15T18:17:42.994Z,97787.88
2022-10-15T18:20:10.148Z,97809.13
2022-10-15T18:22:37.245Z,97819.09
2022-10-15T18:25:04.834Z,97817.81
2022-10-15T18:27:31.482Z,97814.47
2022-10-15T18:29:59.447Z,97819.81
2022-10-15T18:32:26.195Z,97824.50
2022-10-15T18:34:53.606Z,97832.56
2022-10-15T18:37:21.591Z,97834.03
2022-10-15T18:39:48.221Z,97830.84
2022-10-15T18:42:15.432Z,97833.53
2022-10-15T18:44:42.088Z,97830.19
2022-10-15T18:47:08.716Z,97834.22
2022-10-15T18:49:43.331Z,97829.19
2022-10-15T18:52:21.400Z,97834.19
2022-10-15T18:54:55.253Z,97828.16
2022-10-15T18:57:22.248Z,97832.47
2022-10-15T18:59:48.942Z,97828.78
2022-10-15T19:02:15.667Z,97834.19
2022-10-15T19:04:42.284Z,97814.25
2022-10-15T19:07:08.935Z,97813.13
2022-10-15T19:09:35.589Z,97817.00
2022-10-15T19:12:02.429Z,97829.50
2022-10-15T19:14:29.236Z,97829.03
2022-10-15T19:16:56.661Z,97823.00
2022-10-15T19:19:24.870Z,97830.38
2022-10-15T19:21:52.939Z,97835.38
2022-10-15T19:24:20.912Z,97830.69
2022-10-15T19:26:48.221Z,97839.38
2022-10-15T19:29:15.158Z,97843.56
2022-10-15T19:31:43.512Z,97849.78
2022-10-15T19:34:10.913Z,97847.94
2022-10-15T19:36:43.803Z,97855.97
2022-10-15T19:39:28.750Z,97850.28
2022-10-15T19:41:55.459Z,97845.25
2022-10-15T19:44:26.119Z,97844.44
2022-10-15T19:46:53.972Z,97846.91
2022-10-15T19:49:21.140Z,97854.13
2022-10-15T19:51:49.101Z,97848.63
2022-10-15T19:54:16.927Z,97848.09
2022-10-15T19:56:43.578Z,97848.38
2022-10-15T19:59:11.359Z,97847.09
2022-10-15T20:01:38.430Z,97855.31
2022-10-15T20:04:06.873Z,97857.66
2022-10-15T20:06:35.683Z,97853.97
2022-10-15T20:09:03.089Z,97856.59
2022-10-15T20:11:30.180Z,97858.97
2022-10-15T20:13:58.695Z,97860.47
2022-10-15T20:16:26.476Z,97856.41
2022-10-15T20:18:57.062Z,97855.75
2022-10-15T20:21:23.690Z,97855.59
2022-10-15T20:23:50.472Z,97862.63
2022-10-15T20:26:17.185Z,97861.47
2022-10-15T20:28:46.216Z,97870.63
2022-10-15T20:31:16.704Z,97864.09
2022-10-15T20:33:44.918Z,97864.44
2022-10-15T20:36:22.561Z,97866.78
2022-10-15T20:38:50.972Z,97873.78
2022-10-15T20:41:18.260Z,97886.50
2022-10-15T20:43:45.759Z,97890.84
2022-10-15T20:46:38.597Z,97898.56
2022-10-15T20:49:09.367Z,97899.88
2022-10-15T20:51:39.826Z,97898.38
2022-10-15T20:54:07.026Z,97901.38
2022-10-15T20:56:33.803Z,97910.69
2022-10-15T20:59:00.986Z,97912.75
2022-10-15T21:01:27.606Z,97912.31
2022-10-15T21:03:54.196Z,97922.63
2022-10-15T21:06:20.844Z,97917.63
2022-10-15T21:08:47.685Z,97912.81
2022-10-15T21:11:15.817Z,97924.34
2022-10-15T21:13:42.523Z,97911.94
2022-10-15T21:16:09.589Z,97915.13
2022-10-15T21:18:37.087Z,97921.16
2022-10-15T21:21:11.320Z,97917.66
2022-10-15T21:23:42.779Z,97928.91
2022-10-15T21:26:17.799Z,97928.75
2022-10-15T21:28:45.571Z,97934.94
2022-10-15T21:31:15.765Z,97933.44
2022-10-15T21:33:43.033Z,97932.28
2022-10-15T21:36:13.549Z,97938.31
2022-10-15T21:38:40.559Z,97938.13
2022-10-15T21:41:09.045Z,97939.97
2022-10-15T21:43:36.152Z,97943.31
2022-10-15T21:46:10.990Z,97944.66
2022-10-15T21:48:38.926Z,97950.34
2022-10-15T21:51:10.136Z,97951.72
2022-10-15T21:53:37.790Z,97950.88
2022-10-15T21:56:05.700Z,97949.16
2022-10-15T21:58:32.403Z,97952.00
2022-10-15T22:01:15.908Z,97965.38
2022-10-15T22:03:46.192Z,97962.69
2022-10-15T22:06:13.288Z,97957.00
2022-10-15T22:08:40.283Z,97954.00
2022-10-15T22:11:10.751Z,97968.22
2022-10-15T22:13:37.920Z,97962.16
2022-10-15T22:16:05.758Z,97964.22
2022-10-15T22:18:32.551Z,97963.69
2022-10-15T22:21:10.370Z,97957.34
2022-10-15T22:23:37.068Z,97973.25
2022-10-15T22:26:03.653Z,97955.41
2022-10-15T22:28:30.360Z,97951.72
2022-10-15T22:31:02.611Z,97961.75
2022-10-15T22:33:29.495Z,97961.59
2022-10-15T22:36:04.484Z,97976.41
2022-10-15T22:38:31.839Z,97979.09
2022-10-15T22:40:59.396Z,97980.09
2022-10-15T22:43:26.232Z,97974.56
2022-10-15T22:45:52.890Z,97966.22
2022-10-15T22:48:19.539Z,97967.22
2022-10-15T22:50:46.175Z,97964.72
2022-10-15T22:53:12.725Z,97974.75
2022-10-15T22:55:39.413Z,97966.72
2022-10-15T22:58:06.181Z,97959.84
2022-10-15T23:00:32.829Z,97968.56
2022-10-15T23:02:59.559Z,97977.91
2022-10-15T23:05:26.170Z,97973.97
2022-10-15T23:07:52.869Z,97970.59
2022-10-15T23:10:19.441Z,97967.25
2022-10-15T23:12:46.043Z,97968.91
2022-10-15T23:15:12.667Z,97979.47
2022-10-15T23:17:39.311Z,97988.19
2022-10-15T23:20:06.388Z,97981.81
2022-10-15T23:22:33.023Z,97983.16
2022-10-15T23:24:59.609Z,97983.81
2022-10-15T23:27:26.478Z,97991.03
2022-10-15T23:30:07.438Z,97985.34
2022-10-15T23:32:41.796Z,97975.81
2022-10-15T23:35:11.440Z,97975.97
2022-10-15T23:37:41.596Z,97978.00
2022-10-15T23:40:09.401Z,97985.84
2022-10-15T23:42:36.097Z,97990.34
2022-10-15T23:45:02.915Z,97998.91
2022-10-15T23:47:29.617Z,98000.22
2022-10-15T23:49:56.373Z,98011.63
2022-10-15T23:52:22.947Z,98010.78
2022-10-15T23:54:50.289Z,98006.44
2022-10-15T23:57:16.863Z,98013.97
2022-10-15T23:59:43.467Z,98006.78
